createdAt,value
2018-07-26T00:00:44.393Z,24.23
2018-07-26T00:03:12.421Z,24.24
2018-07-26T00:05:40.469Z,24.22
2018-07-26T00:08:08.514Z,24.22
2018-07-26T00:10:36.540Z,24.21
2018-07-26T00:13:04.943Z,24.22
2018-07-26T00:15:32.880Z,24.22
2018-07-26T00:18:00.912Z,24.19
2018-07-26T00:20:29.009Z,24.18
2018-07-26T00:22:57.046Z,24.16
2018-07-26T00:25:25.093Z,24.17
2018-07-26T00:27:53.137Z,24.16
2018-07-26T00:30:21.182Z,24.12
2018-07-26T00:32:49.348Z,24.11
2018-07-26T00:35:17.416Z,24.08
2018-07-26T00:37:45.463Z,24.08
2018-07-26T00:40:13.491Z,24.09
2018-07-26T00:42:41.534Z,24.09
2018-07-26T00:45:09.561Z,24.08
2018-07-26T00:47:37.592Z,24.09
2018-07-26T00:50:06.227Z,24.08
2018-07-26T00:52:34.262Z,24.06
2018-07-26T00:55:02.286Z,24.03
2018-07-26T00:57:30.322Z,24.00
2018-07-26T00:59:58.360Z,23.96
2018-07-26T01:02:26.385Z,23.94
2018-07-26T01:04:54.413Z,23.92
2018-07-26T01:07:22.444Z,23.88
2018-07-26T01:09:50.473Z,23.87
2018-07-26T01:12:18.515Z,23.82
2018-07-26T01:14:46.552Z,23.79
2018-07-26T01:17:14.600Z,23.76
2018-07-26T01:19:42.620Z,23.72
2018-07-26T01:22:10.807Z,23.69
2018-07-26T01:24:38.836Z,23.64
2018-07-26T01:27:06.865Z,23.61
2018-07-26T01:29:34.900Z,23.58
2018-07-26T01:32:02.929Z,23.55
2018-07-26T01:34:30.956Z,23.50
2018-07-26T01:36:58.985Z,23.48
2018-07-26T01:39:27.039Z,23.46
2018-07-26T01:42:01.729Z,23.45
2018-07-26T01:44:29.908Z,23.42
2018-07-26T01:46:58.231Z,23.40
2018-07-26T01:49:26.261Z,23.37
2018-07-26T01:51:54.284Z,23.34
2018-07-26T01:54:22.316Z,23.30
2018-07-26T01:56:50.356Z,23.27
2018-07-26T01:59:18.394Z,23.26
2018-07-26T02:01:46.467Z,23.24
2018-07-26T02:04:14.464Z,23.22
2018-07-26T02:06:42.499Z,23.21
2018-07-26T02:09:11.110Z,23.18
2018-07-26T02:11:39.144Z,23.16
2018-07-26T02:14:11.371Z,23.14
2018-07-26T02:16:39.396Z,23.12
2018-07-26T02:19:07.773Z,23.09
2018-07-26T02:21:35.817Z,23.08
2018-07-26T02:24:04.814Z,23.06
2018-07-26T02:26:33.008Z,23.03
2018-07-26T02:29:01.024Z,23.00
2018-07-26T02:31:29.085Z,23.01
2018-07-26T02:33:57.120Z,23.00
2018-07-26T02:36:25.156Z,22.99
2018-07-26T02:38:53.186Z,22.96
2018-07-26T02:41:21.250Z,22.94
2018-07-26T02:43:49.266Z,22.94
2018-07-26T02:46:17.465Z,22.89
2018-07-26T02:48:45.485Z,22.86
2018-07-26T02:51:13.529Z,22.85
2018-07-26T02:53:41.590Z,22.81
2018-07-26T02:56:09.620Z,22.78
2018-07-26T02:58:37.661Z,22.76
2018-07-26T03:01:05.689Z,22.76
2018-07-26T03:03:33.717Z,22.72
2018-07-26T03:06:01.727Z,22.71
2018-07-26T03:08:29.829Z,22.71
2018-07-26T03:10:57.986Z,22.69
2018-07-26T03:13:26.022Z,22.66
2018-07-26T03:15:54.045Z,22.65
2018-07-26T03:18:22.073Z,22.64
2018-07-26T03:20:50.350Z,22.62
2018-07-26T03:23:18.304Z,22.59
2018-07-26T03:25:46.332Z,22.55
2018-07-26T03:28:14.357Z,22.55
2018-07-26T03:30:42.378Z,22.54
2018-07-26T03:33:10.392Z,22.54
2018-07-26T03:35:38.407Z,22.50
2018-07-26T03:38:06.481Z,22.48
2018-07-26T03:40:34.564Z,22.45
2018-07-26T03:43:02.592Z,22.45
2018-07-26T03:45:30.616Z,22.45
2018-07-26T03:47:58.653Z,22.42
2018-07-26T03:50:26.669Z,22.42
2018-07-26T03:52:54.711Z,22.39
2018-07-26T03:55:22.741Z,22.37
2018-07-26T03:57:50.900Z,22.35
2018-07-26T04:00:18.906Z,22.34
2018-07-26T04:02:47.149Z,22.35
2018-07-26T04:05:15.189Z,22.36
2018-07-26T04:07:43.379Z,22.35
2018-07-26T04:10:11.409Z,22.35
2018-07-26T04:12:39.417Z,22.35
2018-07-26T04:15:07.476Z,22.36
2018-07-26T04:17:35.586Z,22.37
2018-07-26T04:20:03.690Z,22.39
2018-07-26T04:22:31.653Z,22.41
2018-07-26T04:24:59.699Z,22.42
2018-07-26T04:27:27.721Z,22.42
2018-07-26T04:29:55.933Z,22.41
2018-07-26T04:32:23.969Z,22.41
2018-07-26T04:34:52.006Z,22.42
2018-07-26T04:37:20.036Z,22.42
2018-07-26T04:39:48.052Z,22.45
2018-07-26T04:42:16.091Z,22.48
2018-07-26T04:44:44.342Z,22.49
2018-07-26T04:47:12.373Z,22.51
2018-07-26T04:49:40.496Z,22.53
2018-07-26T04:52:08.540Z,22.56
2018-07-26T04:54:36.641Z,22.57
2018-07-26T04:57:04.989Z,22.60
2018-07-26T04:59:33.044Z,22.61
2018-07-26T05:02:01.070Z,22.65
2018-07-26T05:04:29.085Z,22.68
2018-07-26T05:06:58.410Z,22.70
2018-07-26T05:09:26.458Z,22.73
2018-07-26T05:11:54.493Z,22.77
2018-07-26T05:14:22.535Z,22.80
2018-07-26T05:16:50.833Z,22.80
2018-07-26T05:19:18.847Z,22.81
2018-07-26T05:21:46.905Z,22.83
2018-07-26T05:24:15.026Z,22.86
2018-07-26T05:26:43.097Z,22.89
2018-07-26T05:29:11.135Z,22.94
2018-07-26T05:31:39.168Z,22.99
2018-07-26T05:34:07.196Z,22.98
2018-07-26T05:36:35.226Z,22.99
2018-07-26T05:39:03.297Z,23.00
2018-07-26T05:41:31.330Z,23.01
2018-07-26T05:43:59.382Z,23.03
2018-07-26T05:46:27.409Z,23.05
2018-07-26T05:48:55.443Z,23.12
2018-07-26T05:51:23.481Z,23.16
2018-07-26T05:53:51.681Z,23.22
2018-07-26T05:56:19.701Z,23.27
2018-07-26T05:58:47.819Z,23.31
2018-07-26T06:01:15.888Z,23.40
2018-07-26T06:03:44.205Z,23.44
2018-07-26T06:06:12.256Z,23.50
2018-07-26T06:08:40.306Z,23.62
2018-07-26T06:11:08.397Z,23.73
2018-07-26T06:13:36.463Z,23.83
2018-07-26T06:16:04.974Z,23.98
2018-07-26T06:18:33.008Z,24.08
2018-07-26T06:21:01.294Z,24.22
2018-07-26T06:23:29.349Z,24.38
2018-07-26T06:25:57.454Z,24.55
2018-07-26T06:28:25.489Z,24.81
2018-07-26T06:30:53.497Z,25.04
2018-07-26T06:33:21.551Z,25.26
2018-07-26T06:35:49.538Z,25.44
2018-07-26T06:38:17.556Z,25.64
2018-07-26T06:40:45.572Z,25.85
2018-07-26T06:43:13.625Z,26.07
2018-07-26T06:45:41.693Z,26.23
2018-07-26T06:48:09.721Z,26.42
2018-07-26T06:50:37.748Z,26.57
2018-07-26T06:53:05.936Z,26.70
2018-07-26T06:55:33.967Z,26.92
2018-07-26T06:58:01.982Z,27.10
2018-07-26T07:00:30.005Z,27.29
2018-07-26T07:02:58.013Z,27.50
2018-07-26T07:05:26.125Z,27.60
2018-07-26T07:07:54.156Z,27.71
2018-07-26T07:10:22.401Z,27.83
2018-07-26T07:12:50.421Z,27.99
2018-07-26T07:15:18.593Z,28.18
2018-07-26T07:17:46.605Z,28.32
2018-07-26T07:20:15.160Z,28.45
2018-07-26T07:22:43.341Z,28.60
2018-07-26T07:25:11.366Z,28.84
2018-07-26T07:27:39.541Z,29.00
2018-07-26T07:30:09.899Z,29.22
2018-07-26T07:32:37.930Z,29.43
2018-07-26T07:35:06.387Z,29.66
2018-07-26T07:37:34.397Z,29.88
2018-07-26T07:40:02.651Z,30.03
2018-07-26T07:42:30.713Z,30.11
2018-07-26T07:44:58.733Z,30.31
2018-07-26T07:47:26.763Z,30.44
2018-07-26T07:49:54.797Z,30.63
2018-07-26T07:52:23.605Z,30.83
2018-07-26T07:54:51.688Z,30.99
2018-07-26T07:57:19.741Z,31.06
2018-07-26T07:59:47.849Z,31.05
2018-07-26T08:02:15.845Z,31.12
2018-07-26T08:04:43.986Z,31.21
2018-07-26T08:07:12.006Z,31.46
2018-07-26T08:09:40.024Z,31.70
2018-07-26T08:12:08.040Z,31.90
2018-07-26T08:14:36.231Z,32.13
2018-07-26T08:17:04.764Z,32.35
2018-07-26T08:19:32.801Z,32.52
2018-07-26T08:22:00.832Z,32.69
2018-07-26T08:24:28.860Z,32.76
2018-07-26T08:26:56.908Z,32.96
2018-07-26T08:29:25.039Z,33.05
2018-07-26T08:31:53.028Z,33.15
2018-07-26T08:34:21.060Z,33.23
2018-07-26T08:36:49.082Z,33.41
2018-07-26T08:39:17.104Z,33.50
2018-07-26T08:41:45.119Z,33.68
2018-07-26T08:44:13.140Z,33.81
2018-07-26T08:46:41.162Z,34.03
2018-07-26T08:49:09.209Z,34.24
2018-07-26T08:51:37.347Z,34.37
2018-07-26T08:54:05.750Z,34.45
2018-07-26T08:56:33.941Z,34.57
2018-07-26T08:59:02.024Z,34.33
2018-07-26T09:01:30.037Z,34.43
2018-07-26T09:03:58.068Z,34.68
2018-07-26T09:06:26.081Z,34.88
2018-07-26T09:08:54.120Z,35.07
2018-07-26T09:11:22.189Z,35.23
2018-07-26T09:13:50.335Z,35.35
2018-07-26T09:16:18.333Z,35.47
2018-07-26T09:18:46.358Z,35.72
2018-07-26T09:21:14.389Z,35.85
2018-07-26T09:23:42.463Z,35.95
2018-07-26T09:26:10.490Z,36.06
2018-07-26T09:28:38.556Z,36.17
2018-07-26T09:31:06.750Z,36.24
2018-07-26T09:33:34.830Z,36.36
2018-07-26T09:36:02.893Z,36.33
2018-07-26T09:38:30.972Z,36.44
2018-07-26T09:40:59.042Z,36.62
2018-07-26T09:43:27.070Z,36.64
2018-07-26T09:45:55.785Z,36.75
2018-07-26T09:48:23.863Z,36.94
2018-07-26T09:50:51.883Z,37.06
2018-07-26T09:53:20.014Z,37.08
2018-07-26T09:55:48.395Z,37.10
2018-07-26T09:58:16.409Z,37.23
2018-07-26T10:00:49.736Z,37.35
2018-07-26T10:03:17.760Z,37.44
2018-07-26T10:05:45.790Z,37.57
2018-07-26T10:08:13.805Z,37.71
2018-07-26T10:10:41.821Z,37.84
2018-07-26T10:13:09.837Z,37.97
2018-07-26T10:15:37.882Z,38.05
2018-07-26T10:18:06.277Z,38.09
2018-07-26T10:20:34.292Z,38.18
2018-07-26T10:23:02.318Z,38.25
2018-07-26T10:25:30.345Z,38.36
2018-07-26T10:27:58.359Z,38.45
2018-07-26T10:30:26.555Z,38.46
2018-07-26T10:32:54.720Z,38.52
2018-07-26T10:35:22.747Z,38.64
2018-07-26T10:37:50.776Z,38.68
2018-07-26T10:40:18.817Z,38.75
2018-07-26T10:42:46.845Z,38.85
2018-07-26T10:45:14.861Z,38.86
2018-07-26T10:47:42.889Z,38.83
2018-07-26T10:50:11.456Z,38.97
2018-07-26T10:52:39.637Z,39.08
2018-07-26T10:55:08.197Z,39.13
2018-07-26T10:57:37.310Z,39.21
2018-07-26T11:00:06.525Z,39.20
2018-07-26T11:02:34.572Z,39.34
2018-07-26T11:05:02.584Z,39.43
2018-07-26T11:07:30.600Z,39.57
2018-07-26T11:09:58.624Z,39.71
2018-07-26T11:12:26.672Z,39.51
2018-07-26T11:14:59.651Z,39.34
2018-07-26T11:17:27.668Z,39.27
2018-07-26T11:19:55.688Z,39.31
2018-07-26T11:22:23.712Z,39.57
2018-07-26T11:24:55.920Z,39.79
2018-07-26T11:27:25.136Z,39.91
2018-07-26T11:29:53.305Z,39.96
2018-07-26T11:32:21.380Z,40.01
2018-07-26T11:34:49.375Z,40.16
2018-07-26T11:37:17.608Z,40.14
2018-07-26T11:39:45.644Z,40.03
2018-07-26T11:42:13.777Z,40.10
2018-07-26T11:44:41.815Z,40.18
2018-07-26T11:47:09.912Z,40.38
2018-07-26T11:49:37.944Z,40.36
2018-07-26T11:52:06.532Z,40.43
2018-07-26T11:54:34.869Z,40.34
2018-07-26T11:57:02.945Z,40.21
2018-07-26T11:59:31.172Z,40.03
2018-07-26T12:01:59.191Z,40.08
2018-07-26T12:04:27.468Z,40.10
2018-07-26T12:06:55.613Z,40.09
2018-07-26T12:09:23.699Z,40.30
2018-07-26T12:11:51.715Z,40.36
2018-07-26T12:14:19.756Z,40.43
2018-07-26T12:16:47.772Z,40.48
2018-07-26T12:19:15.795Z,40.26
2018-07-26T12:21:43.822Z,40.31
2018-07-26T12:24:12.013Z,40.53
2018-07-26T12:26:40.086Z,40.80
2018-07-26T12:29:08.492Z,40.90
2018-07-26T12:31:36.554Z,40.80
2018-07-26T12:36:58.246Z,40.86
2018-07-26T12:39:26.551Z,40.88
2018-07-26T12:41:54.566Z,40.73
2018-07-26T12:44:22.589Z,40.59
2018-07-26T12:46:50.639Z,40.51
2018-07-26T12:49:18.657Z,40.49
2018-07-26T12:51:46.920Z,40.55
2018-07-26T12:54:14.989Z,40.37
2018-07-26T12:56:43.061Z,40.36
2018-07-26T12:59:11.137Z,40.49
2018-07-26T13:01:39.215Z,40.78
2018-07-26T13:04:07.289Z,40.82
2018-07-26T13:06:35.348Z,40.78
2018-07-26T13:09:03.448Z,40.85
2018-07-26T13:11:31.473Z,40.87
2018-07-26T13:13:59.489Z,40.82
2018-07-26T13:16:27.530Z,40.91
2018-07-26T13:18:55.551Z,40.95
2018-07-26T13:21:23.556Z,40.88
2018-07-26T13:23:51.576Z,41.04
2018-07-26T13:26:19.612Z,41.20
2018-07-26T13:28:47.763Z,41.19
2018-07-26T13:31:16.096Z,41.18
2018-07-26T13:33:44.095Z,41.14
2018-07-26T13:36:12.201Z,41.08
2018-07-26T13:38:40.212Z,41.08
2018-07-26T13:41:08.258Z,41.19
2018-07-26T13:43:36.284Z,41.23
2018-07-26T13:46:04.740Z,41.38
2018-07-26T13:48:32.876Z,41.30
2018-07-26T13:51:01.293Z,41.02
2018-07-26T13:53:29.336Z,41.08
2018-07-26T13:55:57.358Z,41.15
2018-07-26T13:58:25.389Z,41.18
2018-07-26T14:00:53.401Z,41.23
2018-07-26T14:03:21.437Z,41.41
2018-07-26T14:05:49.472Z,41.45
2018-07-26T14:08:17.497Z,41.43
2018-07-26T14:10:45.559Z,41.45
2018-07-26T14:13:13.628Z,41.44
2018-07-26T14:15:41.678Z,41.41
2018-07-26T14:18:09.628Z,41.40
2018-07-26T14:20:37.703Z,41.46
2018-07-26T14:23:05.871Z,41.50
2018-07-26T14:25:33.948Z,41.44
2018-07-26T14:28:02.003Z,41.41
2018-07-26T14:30:30.183Z,41.32
2018-07-26T14:32:58.464Z,41.13
2018-07-26T14:35:26.488Z,41.13
2018-07-26T14:37:54.529Z,41.20
2018-07-26T14:40:22.569Z,41.12
2018-07-26T14:42:50.609Z,40.93
2018-07-26T14:45:18.639Z,40.76
2018-07-26T14:47:46.668Z,40.63
2018-07-26T14:50:14.684Z,40.47
2018-07-26T14:52:42.722Z,40.20
2018-07-26T14:55:10.755Z,40.18
2018-07-26T14:57:38.779Z,40.17
2018-07-26T15:00:06.933Z,40.19
2018-07-26T15:02:37.030Z,40.19
2018-07-26T15:10:50.836Z,39.64
2018-07-26T15:13:18.861Z,39.59
2018-07-26T15:15:46.872Z,39.44
2018-07-26T15:18:14.920Z,39.43
2018-07-26T15:20:42.929Z,39.54
2018-07-26T15:23:10.967Z,39.69
2018-07-26T15:25:38.993Z,39.60
2018-07-26T15:28:07.068Z,39.45
2018-07-26T15:30:35.096Z,39.45
2018-07-26T15:33:03.114Z,39.47
2018-07-26T15:35:31.236Z,39.46
2018-07-26T15:37:59.313Z,39.44
2018-07-26T15:40:27.328Z,39.36
2018-07-26T15:42:55.367Z,39.37
2018-07-26T15:45:23.628Z,39.21
2018-07-26T15:47:51.649Z,39.08
2018-07-26T15:50:19.697Z,39.03
2018-07-26T15:52:47.738Z,39.04
2018-07-26T15:55:15.813Z,38.97
2018-07-26T15:57:43.897Z,38.99
2018-07-26T16:00:12.208Z,38.95
2018-07-26T16:02:40.296Z,38.90
2018-07-26T16:05:08.665Z,38.80
2018-07-26T16:07:36.949Z,38.80
2018-07-26T16:10:05.580Z,38.88
2018-07-26T16:12:33.866Z,38.87
2018-07-26T16:15:02.881Z,38.84
2018-07-26T16:17:31.108Z,38.85
2018-07-26T16:19:59.117Z,38.74
2018-07-26T16:22:27.401Z,38.61
2018-07-26T16:24:55.381Z,38.52
2018-07-26T16:27:23.409Z,38.28
2018-07-26T16:29:51.426Z,38.20
2018-07-26T16:32:19.551Z,38.22
2018-07-26T16:34:47.580Z,38.15
2018-07-26T16:37:22.135Z,38.10
2018-07-26T16:39:50.212Z,38.10
2018-07-26T16:42:18.184Z,38.13
2018-07-26T16:44:46.451Z,38.13
2018-07-26T16:47:14.529Z,38.05
2018-07-26T16:49:42.575Z,38.06
2018-07-26T16:52:10.602Z,38.05
2018-07-26T16:54:38.653Z,37.99
2018-07-26T16:57:06.666Z,37.91
2018-07-26T16:59:34.700Z,37.86
2018-07-26T17:02:02.762Z,37.83
2018-07-26T17:04:30.810Z,37.79
2018-07-26T17:06:58.836Z,37.71
2018-07-26T17:09:26.861Z,37.64
2018-07-26T17:11:54.886Z,37.56
2018-07-26T17:14:22.944Z,37.46
2018-07-26T17:16:50.981Z,37.39
2018-07-26T17:19:19.013Z,37.30
2018-07-26T17:21:47.190Z,37.20
2018-07-26T17:24:15.244Z,37.05
2018-07-26T17:26:43.271Z,37.02
2018-07-26T17:29:11.880Z,36.97
2018-07-26T17:31:39.837Z,36.82
2018-07-26T17:34:07.897Z,36.62
2018-07-26T17:36:35.945Z,36.58
2018-07-26T17:39:07.063Z,36.52
2018-07-26T17:41:35.093Z,36.33
2018-07-26T17:44:03.123Z,36.21
2018-07-26T17:46:31.154Z,36.11
2018-07-26T17:48:59.176Z,35.99
2018-07-26T17:51:27.216Z,35.95
2018-07-26T17:53:55.236Z,35.85
2018-07-26T17:56:23.260Z,35.70
2018-07-26T17:58:51.433Z,35.63
2018-07-26T18:01:20.068Z,35.57
2018-07-26T18:03:48.081Z,35.44
2018-07-26T18:06:16.121Z,35.36
2018-07-26T18:08:44.149Z,35.28
2018-07-26T18:11:12.176Z,35.21
2018-07-26T18:13:40.215Z,35.16
2018-07-26T18:16:08.236Z,35.09
2018-07-26T18:18:36.282Z,35.05
2018-07-26T18:21:04.836Z,34.98
2018-07-26T18:23:32.872Z,34.90
2018-07-26T18:26:00.920Z,34.82
2018-07-26T18:28:28.950Z,34.76
2018-07-26T18:30:56.984Z,34.70
2018-07-26T18:33:25.029Z,34.66
2018-07-26T18:35:53.065Z,34.58
2018-07-26T18:38:21.147Z,34.43
2018-07-26T18:40:49.151Z,34.39
2018-07-26T18:43:17.177Z,34.32
2018-07-26T18:45:45.221Z,34.26
2018-07-26T18:48:13.270Z,34.17
2018-07-26T18:50:41.296Z,34.10
2018-07-26T18:53:09.324Z,34.04
2018-07-26T18:55:37.362Z,34.00
2018-07-26T18:58:05.398Z,33.92
2018-07-26T19:00:33.429Z,33.83
2018-07-26T19:03:01.473Z,33.75
2018-07-26T19:05:29.509Z,33.64
2018-07-26T19:07:57.537Z,33.55
2018-07-26T19:10:25.555Z,33.46
2018-07-26T19:12:53.601Z,33.40
2018-07-26T19:15:21.660Z,33.34
2018-07-26T19:17:49.687Z,33.21
2018-07-26T19:20:17.739Z,33.14
2018-07-26T19:22:45.764Z,33.05
2018-07-26T19:25:13.810Z,32.99
2018-07-26T19:27:41.833Z,32.91
2018-07-26T19:30:12.015Z,32.82
2018-07-26T19:32:40.061Z,32.74
2018-07-26T19:35:08.109Z,32.68
2018-07-26T19:37:36.276Z,32.60
2018-07-26T19:40:05.966Z,32.53
2018-07-26T19:42:34.296Z,32.44
2018-07-26T19:45:02.360Z,32.37
2018-07-26T19:47:30.396Z,32.28
2018-07-26T19:49:58.434Z,32.19
2018-07-26T19:52:26.636Z,32.11
2018-07-26T19:54:54.736Z,32.02
2018-07-26T19:57:22.772Z,31.93
2018-07-26T19:59:50.801Z,31.86
2018-07-26T20:02:18.999Z,31.77
2018-07-26T20:04:47.023Z,31.72
2018-07-26T20:07:15.045Z,31.64
2018-07-26T20:09:43.084Z,31.57
2018-07-26T20:12:11.113Z,31.50
2018-07-26T20:14:39.134Z,31.43
2018-07-26T20:17:07.210Z,31.38
2018-07-26T20:19:35.261Z,31.31
2018-07-26T20:22:03.302Z,31.25
2018-07-26T20:24:31.340Z,31.18
2018-07-26T20:26:59.392Z,31.12
2018-07-26T20:29:27.492Z,31.06
2018-07-26T20:31:55.569Z,30.99
2018-07-26T20:34:23.648Z,30.91
2018-07-26T20:36:51.753Z,30.83
2018-07-26T20:39:19.826Z,30.78
2018-07-26T20:41:47.865Z,30.73
2018-07-26T20:44:15.925Z,30.66
2018-07-26T20:46:43.984Z,30.62
2018-07-26T20:49:12.074Z,30.57
2018-07-26T20:51:40.125Z,30.51
2018-07-26T20:54:08.215Z,30.45
2018-07-26T20:56:36.227Z,30.37
2018-07-26T20:59:04.952Z,30.31
2018-07-26T21:01:32.996Z,30.26
2018-07-26T21:04:01.613Z,30.19
2018-07-26T21:06:29.841Z,30.14
2018-07-26T21:08:57.902Z,30.09
2018-07-26T21:11:25.957Z,30.02
2018-07-26T21:13:54.004Z,29.96
2018-07-26T21:16:22.272Z,29.90
2018-07-26T21:18:50.369Z,29.85
2018-07-26T21:21:18.440Z,29.79
2018-07-26T21:23:46.614Z,29.74
2018-07-26T21:26:14.659Z,29.66
2018-07-26T21:28:42.695Z,29.59
2018-07-26T21:31:11.034Z,29.50
2018-07-26T21:33:39.089Z,29.49
2018-07-26T21:36:07.465Z,29.40
2018-07-26T21:38:35.512Z,29.36
2018-07-26T21:41:03.581Z,29.31
2018-07-26T21:43:31.656Z,29.24
2018-07-26T21:45:59.702Z,29.18
2018-07-26T21:48:27.733Z,29.13
2018-07-26T21:50:55.767Z,29.07
2018-07-26T21:53:23.800Z,29.03
2018-07-26T21:55:51.845Z,28.97
2018-07-26T21:58:20.036Z,28.93
2018-07-26T22:00:53.433Z,28.87
2018-07-26T22:03:21.468Z,28.81
2018-07-26T22:05:49.502Z,28.78
2018-07-26T22:08:17.533Z,28.73
2018-07-26T22:10:45.584Z,28.69
2018-07-26T22:13:13.630Z,28.65
2018-07-26T22:15:41.675Z,28.64
2018-07-26T22:18:09.720Z,28.62
2018-07-26T22:20:37.741Z,28.61
2018-07-26T22:23:05.972Z,28.57
2018-07-26T22:25:34.116Z,28.54
2018-07-26T22:28:02.163Z,28.51
2018-07-26T22:30:30.233Z,28.48
2018-07-26T22:32:58.609Z,28.45
2018-07-26T22:35:26.650Z,28.41
2018-07-26T22:37:54.828Z,28.37
2018-07-26T22:40:22.889Z,28.35
2018-07-26T22:42:50.953Z,28.31
2018-07-26T22:45:18.995Z,28.27
2018-07-26T22:47:47.027Z,28.23
2018-07-26T22:50:15.068Z,28.22
2018-07-26T22:52:43.093Z,28.18
2018-07-26T22:55:11.139Z,28.15
2018-07-26T22:57:39.188Z,28.10
2018-07-26T23:00:07.638Z,28.05
2018-07-26T23:02:35.682Z,28.02
2018-07-26T23:05:03.895Z,27.96
2018-07-26T23:07:31.945Z,27.92
2018-07-26T23:09:59.985Z,27.89
2018-07-26T23:12:28.022Z,27.86
2018-07-26T23:14:56.092Z,27.81
2018-07-26T23:17:24.140Z,27.75
2018-07-26T23:19:52.180Z,27.72
2018-07-26T23:22:20.208Z,27.71
2018-07-26T23:24:48.248Z,27.69
2018-07-26T23:27:16.322Z,27.65
2018-07-26T23:29:44.378Z,27.62
2018-07-26T23:32:12.404Z,27.59
2018-07-26T23:34:40.463Z,27.60
2018-07-26T23:37:08.503Z,27.57
2018-07-26T23:39:36.520Z,27.54
2018-07-26T23:42:04.923Z,27.54
2018-07-26T23:44:32.960Z,27.48
2018-07-26T23:47:00.987Z,27.48
2018-07-26T23:49:29.036Z,27.45
2018-07-26T23:51:57.093Z,27.45
2018-07-26T23:54:25.113Z,27.43
2018-07-26T23:56:53.185Z,27.42
2018-07-26T23:59:21.260Z,27.40
